Genco Leader — VRYR8 — position and weather

sailwx.info

Track history (hours):
 
Tides and Currents Weather Stations Pressure Air Temp Water Temp Dewpoint Dewpoint Depression Visibility Wind Speed Wind Dir Waves Ship Positions

Genco Leader

Last reported at 2016-May-11 19:04 UTC. Time now 2016-May-28 19:40 UTC.
Position N 31°35' E 032°08'.
Warning: this ship's position is 17 days out of date.

Length 225 m; draft 13 m.

Type: Cargo ship. MMSI: 477132000.

Date/timePositionNaut miles runAvg speedWind from/ knotsBaromVisibWave heightAir tempDewpointWater temp
2016-May-11 19:04N 31°35' E 032°08'49911.4
2016-May-09 23:29N 36°41' E 024°12'1111.4
2016-May-09 22:33N 36°51' E 024°07'1211.6
2016-May-09 21:33N 37°02' E 024°02'1311.5
2016-May-09 20:24N 37°14' E 023°55'1011.5
2016-May-09 19:32N 37°23' E 023°51'1111.3
2016-May-09 18:33N 37°34' E 023°46'1110.9
2016-May-09 17:33N 37°44' E 023°40'1010.3
2016-May-09 16:33N 37°51' E 023°31'2 1.5
2016-May-09 15:32N 37°52' E 023°29'0 0.0
2016-May-09 14:32N 37°52' E 023°29'0 0.0
2016-May-09 13:32N 37°52' E 023°29'0 0.1
2016-May-09 12:32N 37°52' E 023°29'0 0.0
2016-May-09 11:29N 37°52' E 023°29'0 0.0
2016-May-09 10:31N 37°52' E 023°29'0 0.0
2016-May-09 09:33N 37°52' E 023°29'0 0.0
2016-May-09 08:33N 37°52' E 023°29'0 0.0
2016-May-09 07:33N 37°52' E 023°29'0 0.0
2016-May-09 06:33N 37°52' E 023°29'0 0.0
2016-May-09 05:33N 37°52' E 023°29'0 0.1
2016-May-09 04:33N 37°52' E 023°29'2 2.1
2016-May-09 03:34N 37°50' E 023°32'3 2.9
2016-May-09 02:33N 37°51' E 023°35'7 7.2
2016-May-09 01:33N 37°46' E 023°42'1010.2
2016-May-09 00:33N 37°38' E 023°50'1110.9
2016-May-08 23:33N 37°36' E 024°04'1110.9
2016-May-08 22:33N 37°42' E 024°15'1111.4
2016-May-08 21:33N 37°49' E 024°26'1111.2
2016-May-08 20:33N 37°57' E 024°36'5711.3
2016-May-08 15:33N 38°49' E 025°06'6911.3
2016-May-08 09:28N 39°51' E 025°44'160 9.9
2016-May-07 17:20N 40°56' E 028°55'331 8.1
2016-May-06 00:17N 46°16' E 030°54'810.9
2016-May-05 23:33N 46°24' E 030°55'6 6.2
2016-May-05 22:33N 46°30' E 030°58'0 0.0
2016-May-05 17:31N 46°30' E 030°58'0 0.0
2016-May-05 16:31N 46°30' E 030°58'0 0.0
2016-May-05 15:31N 46°30' E 030°58'0 0.0
2016-May-05 06:22N 46°30' E 030°58'0 0.0
2016-May-05 05:31N 46°30' E 030°58'0 0.0
2016-May-05 04:19N 46°30' E 030°58'0 0.0
2016-May-05 03:31N 46°30' E 030°58'0 0.0
2016-May-05 02:31N 46°30' E 030°58'0 0.0
2016-May-05 01:28N 46°30' E 030°58'0 0.0
2016-May-05 00:16N 46°30' E 030°58'0 0.0
2016-May-04 23:25N 46°30' E 030°58'0 0.0
2016-May-04 22:10N 46°30' E 030°58'0 0.0
2016-May-04 21:31N 46°30' E 030°58'0 0.0
2016-May-04 20:31N 46°30' E 030°58'0 0.0
2016-May-04 19:31N 46°30' E 030°58'0 0.0
2016-May-04 18:31N 46°30' E 030°58'0 0.0
2016-May-04 17:31N 46°30' E 030°58'0 0.0
2016-May-04 16:31N 46°30' E 030°58'0 0.0
2016-May-04 14:19N 46°30' E 030°58'0 0.0
2016-May-04 06:16N 46°30' E 030°58'2 2.5
2016-May-04 05:33N 46°30' E 030°55'5 4.6
2016-May-04 04:33N 46°34' E 031°00'  
Track history (hours):
 
Tides and Currents Weather Stations Pressure Air Temp Water Temp Dewpoint Dewpoint Depression Visibility Wind Speed Wind Dir Waves Ship Positions

Genco Leader

Last reported at 2016-May-11 19:04 UTC. Time now 2016-May-28 19:40 UTC.
Position N 31°35' E 032°08'.
Warning: this ship's position is 17 days out of date.

Length 225 m; draft 13 m.

Type: Cargo ship. MMSI: 477132000.

Date/timePositionNaut miles runAvg speedWind from/ knotsBaromVisibWave heightAir tempDewpointWater temp
2016-May-11 19:04N 31°35' E 032°08'49911.4
2016-May-09 23:29N 36°41' E 024°12'1111.4
2016-May-09 22:33N 36°51' E 024°07'1211.6
2016-May-09 21:33N 37°02' E 024°02'1311.5
2016-May-09 20:24N 37°14' E 023°55'1011.5
2016-May-09 19:32N 37°23' E 023°51'1111.3
2016-May-09 18:33N 37°34' E 023°46'1110.9
2016-May-09 17:33N 37°44' E 023°40'1010.3
2016-May-09 16:33N 37°51' E 023°31'2 1.5
2016-May-09 15:32N 37°52' E 023°29'0 0.0
2016-May-09 14:32N 37°52' E 023°29'0 0.0
2016-May-09 13:32N 37°52' E 023°29'0 0.1
2016-May-09 12:32N 37°52' E 023°29'0 0.0
2016-May-09 11:29N 37°52' E 023°29'0 0.0
2016-May-09 10:31N 37°52' E 023°29'0 0.0
2016-May-09 09:33N 37°52' E 023°29'0 0.0
2016-May-09 08:33N 37°52' E 023°29'0 0.0
2016-May-09 07:33N 37°52' E 023°29'0 0.0
2016-May-09 06:33N 37°52' E 023°29'0 0.0
2016-May-09 05:33N 37°52' E 023°29'0 0.1
2016-May-09 04:33N 37°52' E 023°29'2 2.1
2016-May-09 03:34N 37°50' E 023°32'3 2.9
2016-May-09 02:33N 37°51' E 023°35'7 7.2
2016-May-09 01:33N 37°46' E 023°42'1010.2
2016-May-09 00:33N 37°38' E 023°50'1110.9
2016-May-08 23:33N 37°36' E 024°04'1110.9
2016-May-08 22:33N 37°42' E 024°15'1111.4
2016-May-08 21:33N 37°49' E 024°26'1111.2
2016-May-08 20:33N 37°57' E 024°36'5711.3
2016-May-08 15:33N 38°49' E 025°06'6911.3
2016-May-08 09:28N 39°51' E 025°44'160 9.9
2016-May-07 17:20N 40°56' E 028°55'331 8.1
2016-May-06 00:17N 46°16' E 030°54'810.9
2016-May-05 23:33N 46°24' E 030°55'6 6.2
2016-May-05 22:33N 46°30' E 030°58'0 0.0
2016-May-05 17:31N 46°30' E 030°58'0 0.0
2016-May-05 16:31N 46°30' E 030°58'0 0.0
2016-May-05 15:31N 46°30' E 030°58'0 0.0
2016-May-05 06:22N 46°30' E 030°58'0 0.0
2016-May-05 05:31N 46°30' E 030°58'0 0.0
2016-May-05 04:19N 46°30' E 030°58'0 0.0
2016-May-05 03:31N 46°30' E 030°58'0 0.0
2016-May-05 02:31N 46°30' E 030°58'0 0.0
2016-May-05 01:28N 46°30' E 030°58'0 0.0
2016-May-05 00:16N 46°30' E 030°58'0 0.0
2016-May-04 23:25N 46°30' E 030°58'0 0.0
2016-May-04 22:10N 46°30' E 030°58'0 0.0
2016-May-04 21:31N 46°30' E 030°58'0 0.0
2016-May-04 20:31N 46°30' E 030°58'0 0.0
2016-May-04 19:31N 46°30' E 030°58'0 0.0
2016-May-04 18:31N 46°30' E 030°58'0 0.0
2016-May-04 17:31N 46°30' E 030°58'0 0.0
2016-May-04 16:31N 46°30' E 030°58'0 0.0
2016-May-04 14:19N 46°30' E 030°58'0 0.0
2016-May-04 06:16N 46°30' E 030°58'2 2.5
2016-May-04 05:33N 46°30' E 030°55'5 4.6
2016-May-04 04:33N 46°34' E 031°00'  

Dump ship's entire track history